Bat Yam, Israel
Current Conditions -  °F | °C
As of 1:50 PM on Friday 31 Oct 2014 (Local Time) from LLSD Reporting Station
Scattered Clouds Scattered Clouds  
Wind Chill: 75°   Ceiling: Unl
Heat Index: 75°   Visibility: 6mi
Dew Point: 59°   Wind: 18mph
Humidity: 57%   Direction: 290°WNW
Pressure: 29.88"   Gusts: NA
Location:  32.02°N, 34.75°E
Report Text: LLSD 311050Z 29016KT 9999 SCT040 24/15 Q1012 RMK RERA
Loading
Personal Weather Stations






























Interactive Weather Map
Tropical Storm Tracking
New forecast layout! Learn more

10-Day Weather Forecast

Advertisements
Track Severe Weather on mobile